sensor_id;sensor_type;location;lat;lon;timestamp;P1;durP1;ratioP1;P2;durP2;ratioP2
30970;SDS011;17651;52.262;10.498;2022-08-02T00:01:46;8.23;;;2.63;;
30970;SDS011;17651;52.262;10.498;2022-08-02T00:03:57;9.23;;;2.70;;
30970;SDS011;17651;52.262;10.498;2022-08-02T00:06:08;3.83;;;2.35;;
30970;SDS011;17651;52.262;10.498;2022-08-02T00:08:20;4.95;;;2.90;;
30970;SDS011;17651;52.262;10.498;2022-08-02T00:10:31;4.70;;;2.65;;
30970;SDS011;17651;52.262;10.498;2022-08-02T00:12:42;7.82;;;2.70;;
30970;SDS011;17651;52.262;10.498;2022-08-02T00:14:53;6.95;;;2.70;;
30970;SDS011;17651;52.262;10.498;2022-08-02T00:17:05;3.50;;;2.55;;
30970;SDS011;17651;52.262;10.498;2022-08-02T00:19:16;5.95;;;2.70;;
30970;SDS011;17651;52.262;10.498;2022-08-02T00:21:27;4.28;;;2.67;;
30970;SDS011;17651;52.262;10.498;2022-08-02T00:23:38;6.78;;;2.88;;
30970;SDS011;17651;52.262;10.498;2022-08-02T00:25:49;5.32;;;2.55;;
30970;SDS011;17651;52.262;10.498;2022-08-02T00:28:00;4.70;;;2.55;;
30970;SDS011;17651;52.262;10.498;2022-08-02T00:30:11;3.85;;;2.35;;
30970;SDS011;17651;52.262;10.498;2022-08-02T00:32:23;3.55;;;2.45;;
30970;SDS011;17651;52.262;10.498;2022-08-02T00:34:34;8.15;;;2.97;;
30970;SDS011;17651;52.262;10.498;2022-08-02T00:36:45;6.32;;;2.60;;
30970;SDS011;17651;52.262;10.498;2022-08-02T00:38:56;7.57;;;2.70;;
30970;SDS011;17651;52.262;10.498;2022-08-02T00:41:14;4.75;;;2.70;;
30970;SDS011;17651;52.262;10.498;2022-08-02T00:43:26;6.13;;;2.50;;
30970;SDS011;17651;52.262;10.498;2022-08-02T00:45:38;7.47;;;3.20;;
30970;SDS011;17651;52.262;10.498;2022-08-02T00:47:49;5.60;;;2.70;;
30970;SDS011;17651;52.262;10.498;2022-08-02T00:50:00;7.40;;;3.05;;
30970;SDS011;17651;52.262;10.498;2022-08-02T00:52:11;6.25;;;2.78;;
30970;SDS011;17651;52.262;10.498;2022-08-02T00:54:22;3.72;;;2.30;;
30970;SDS011;17651;52.262;10.498;2022-08-02T00:56:34;8.63;;;3.22;;
30970;SDS011;17651;52.262;10.498;2022-08-02T00:58:45;4.68;;;2.70;;
30970;SDS011;17651;52.262;10.498;2022-08-02T01:00:56;5.25;;;2.17;;
30970;SDS011;17651;52.262;10.498;2022-08-02T01:03:09;5.72;;;2.60;;
30970;SDS011;17651;52.262;10.498;2022-08-02T01:05:20;7.57;;;2.88;;
30970;SDS011;17651;52.262;10.498;2022-08-02T01:07:32;5.75;;;2.55;;
30970;SDS011;17651;52.262;10.498;2022-08-02T01:09:43;6.43;;;2.45;;
30970;SDS011;17651;52.262;10.498;2022-08-02T01:11:55;5.82;;;3.08;;
30970;SDS011;17651;52.262;10.498;2022-08-02T01:14:10;6.13;;;2.58;;
30970;SDS011;17651;52.262;10.498;2022-08-02T01:16:22;3.60;;;2.70;;
30970;SDS011;17651;52.262;10.498;2022-08-02T01:18:39;6.50;;;2.72;;
30970;SDS011;17651;52.262;10.498;2022-08-02T01:30:18;4.75;;;2.78;;
30970;SDS011;17651;52.262;10.498;2022-08-02T01:32:32;5.20;;;2.53;;
30970;SDS011;17651;52.262;10.498;2022-08-02T01:34:46;3.35;;;2.42;;
30970;SDS011;17651;52.262;10.498;2022-08-02T01:37:06;4.50;;;2.47;;
30970;SDS011;17651;52.262;10.498;2022-08-02T01:39:20;7.80;;;3.00;;
30970;SDS011;17651;52.262;10.498;2022-08-02T01:41:33;5.20;;;3.63;;
30970;SDS011;17651;52.262;10.498;2022-08-02T01:43:45;6.03;;;3.30;;
30970;SDS011;17651;52.262;10.498;2022-08-02T01:45:56;6.57;;;3.30;;
30970;SDS011;17651;52.262;10.498;2022-08-02T01:48:09;6.28;;;3.95;;
30970;SDS011;17651;52.262;10.498;2022-08-02T01:50:23;4.45;;;3.25;;
30970;SDS011;17651;52.262;10.498;2022-08-02T01:52:36;8.43;;;3.67;;
30970;SDS011;17651;52.262;10.498;2022-08-02T01:54:49;10.07;;;4.30;;
30970;SDS011;17651;52.262;10.498;2022-08-02T01:57:01;6.95;;;3.47;;
30970;SDS011;17651;52.262;10.498;2022-08-02T01:59:15;5.85;;;3.75;;
30970;SDS011;17651;52.262;10.498;2022-08-02T02:01:27;5.82;;;3.60;;
30970;SDS011;17651;52.262;10.498;2022-08-02T02:03:38;7.57;;;3.33;;
30970;SDS011;17651;52.262;10.498;2022-08-02T02:05:50;8.13;;;3.92;;
30970;SDS011;17651;52.262;10.498;2022-08-02T02:08:03;6.18;;;3.40;;
30970;SDS011;17651;52.262;10.498;2022-08-02T02:10:16;7.15;;;3.78;;
30970;SDS011;17651;52.262;10.498;2022-08-02T02:12:28;3.83;;;2.90;;
30970;SDS011;17651;52.262;10.498;2022-08-02T02:14:41;9.35;;;3.83;;
30970;SDS011;17651;52.262;10.498;2022-08-02T02:16:53;5.43;;;3.50;;
30970;SDS011;17651;52.262;10.498;2022-08-02T02:19:05;5.05;;;3.33;;
30970;SDS011;17651;52.262;10.498;2022-08-02T02:21:16;10.02;;;3.60;;
30970;SDS011;17651;52.262;10.498;2022-08-02T02:23:27;3.58;;;3.03;;
30970;SDS011;17651;52.262;10.498;2022-08-02T02:25:42;4.63;;;3.20;;
30970;SDS011;17651;52.262;10.498;2022-08-02T02:27:57;4.80;;;3.15;;
30970;SDS011;17651;52.262;10.498;2022-08-02T02:30:10;5.15;;;3.20;;
30970;SDS011;17651;52.262;10.498;2022-08-02T02:32:22;7.45;;;3.13;;
30970;SDS011;17651;52.262;10.498;2022-08-02T02:34:36;5.47;;;3.30;;
30970;SDS011;17651;52.262;10.498;2022-08-02T02:36:49;5.35;;;3.22;;
30970;SDS011;17651;52.262;10.498;2022-08-02T02:39:02;3.53;;;3.17;;
30970;SDS011;17651;52.262;10.498;2022-08-02T02:41:13;6.57;;;2.95;;
30970;SDS011;17651;52.262;10.498;2022-08-02T02:43:27;5.30;;;2.58;;
30970;SDS011;17651;52.262;10.498;2022-08-02T02:45:38;5.03;;;2.70;;
30970;SDS011;17651;52.262;10.498;2022-08-02T02:47:50;5.13;;;2.53;;
30970;SDS011;17651;52.262;10.498;2022-08-02T02:50:02;4.43;;;2.70;;
30970;SDS011;17651;52.262;10.498;2022-08-02T02:52:14;5.30;;;3.38;;
30970;SDS011;17651;52.262;10.498;2022-08-02T02:54:26;6.25;;;2.92;;
30970;SDS011;17651;52.262;10.498;2022-08-02T02:56:38;7.47;;;3.17;;
30970;SDS011;17651;52.262;10.498;2022-08-02T02:58:50;4.97;;;2.80;;
30970;SDS011;17651;52.262;10.498;2022-08-02T03:01:03;7.10;;;3.42;;
30970;SDS011;17651;52.262;10.498;2022-08-02T03:03:37;4.70;;;2.55;;
30970;SDS011;17651;52.262;10.498;2022-08-02T03:05:49;4.75;;;2.85;;
30970;SDS011;17651;52.262;10.498;2022-08-02T03:08:00;4.88;;;3.20;;
30970;SDS011;17651;52.262;10.498;2022-08-02T03:10:12;5.07;;;3.25;;
30970;SDS011;17651;52.262;10.498;2022-08-02T03:12:23;3.53;;;2.97;;
30970;SDS011;17651;52.262;10.498;2022-08-02T03:14:34;5.45;;;3.08;;
30970;SDS011;17651;52.262;10.498;2022-08-02T03:16:50;3.67;;;3.22;;
30970;SDS011;17651;52.262;10.498;2022-08-02T03:19:02;5.13;;;2.80;;
30970;SDS011;17651;52.262;10.498;2022-08-02T03:21:13;3.60;;;2.80;;
30970;SDS011;17651;52.262;10.498;2022-08-02T03:23:24;8.38;;;3.72;;
30970;SDS011;17651;52.262;10.498;2022-08-02T03:25:35;4.47;;;2.60;;
30970;SDS011;17651;52.262;10.498;2022-08-02T03:27:46;4.53;;;2.83;;
30970;SDS011;17651;52.262;10.498;2022-08-02T03:29:57;9.45;;;3.10;;
30970;SDS011;17651;52.262;10.498;2022-08-02T03:32:08;7.10;;;3.03;;
30970;SDS011;17651;52.262;10.498;2022-08-02T03:34:22;5.05;;;2.90;;
30970;SDS011;17651;52.262;10.498;2022-08-02T03:36:33;8.70;;;3.30;;
30970;SDS011;17651;52.262;10.498;2022-08-02T03:38:45;5.90;;;2.90;;
30970;SDS011;17651;52.262;10.498;2022-08-02T03:40:56;4.00;;;2.85;;
30970;SDS011;17651;52.262;10.498;2022-08-02T03:43:08;6.65;;;3.00;;
30970;SDS011;17651;52.262;10.498;2022-08-02T03:45:20;7.82;;;3.50;;
30970;SDS011;17651;52.262;10.498;2022-08-02T03:47:31;5.13;;;3.08;;
30970;SDS011;17651;52.262;10.498;2022-08-02T03:49:43;3.85;;;2.90;;
30970;SDS011;17651;52.262;10.498;2022-08-02T03:51:54;5.57;;;3.20;;
30970;SDS011;17651;52.262;10.498;2022-08-02T03:54:06;6.03;;;2.90;;
30970;SDS011;17651;52.262;10.498;2022-08-02T03:56:17;6.10;;;2.85;;
30970;SDS011;17651;52.262;10.498;2022-08-02T03:58:28;5.30;;;3.20;;
30970;SDS011;17651;52.262;10.498;2022-08-02T04:00:39;5.15;;;2.83;;
30970;SDS011;17651;52.262;10.498;2022-08-02T04:02:50;7.28;;;3.15;;
30970;SDS011;17651;52.262;10.498;2022-08-02T04:05:02;5.82;;;2.88;;
30970;SDS011;17651;52.262;10.498;2022-08-02T04:07:13;6.93;;;3.60;;
30970;SDS011;17651;52.262;10.498;2022-08-02T04:09:24;5.63;;;3.33;;
30970;SDS011;17651;52.262;10.498;2022-08-02T04:11:35;6.10;;;3.25;;
30970;SDS011;17651;52.262;10.498;2022-08-02T04:13:46;4.57;;;2.97;;
30970;SDS011;17651;52.262;10.498;2022-08-02T04:16:09;6.00;;;3.45;;
30970;SDS011;17651;52.262;10.498;2022-08-02T04:18:23;9.73;;;3.78;;
30970;SDS011;17651;52.262;10.498;2022-08-02T04:20:35;4.38;;;3.25;;
30970;SDS011;17651;52.262;10.498;2022-08-02T04:24:58;5.55;;;3.60;;
30970;SDS011;17651;52.262;10.498;2022-08-02T04:27:11;8.80;;;3.72;;
30970;SDS011;17651;52.262;10.498;2022-08-02T04:29:23;4.63;;;3.33;;
30970;SDS011;17651;52.262;10.498;2022-08-02T04:31:34;8.77;;;3.88;;
30970;SDS011;17651;52.262;10.498;2022-08-02T04:33:46;7.68;;;3.60;;
30970;SDS011;17651;52.262;10.498;2022-08-02T04:35:57;6.38;;;3.95;;
30970;SDS011;17651;52.262;10.498;2022-08-02T04:38:08;6.53;;;3.25;;
30970;SDS011;17651;52.262;10.498;2022-08-02T04:40:20;8.23;;;3.95;;
30970;SDS011;17651;52.262;10.498;2022-08-02T04:42:31;5.85;;;3.70;;
30970;SDS011;17651;52.262;10.498;2022-08-02T04:44:42;6.10;;;3.28;;
30970;SDS011;17651;52.262;10.498;2022-08-02T04:46:53;4.60;;;3.75;;
30970;SDS011;17651;52.262;10.498;2022-08-02T04:49:05;6.55;;;3.80;;
30970;SDS011;17651;52.262;10.498;2022-08-02T04:51:16;7.10;;;4.00;;
30970;SDS011;17651;52.262;10.498;2022-08-02T04:53:27;7.53;;;3.65;;
30970;SDS011;17651;52.262;10.498;2022-08-02T04:55:38;5.57;;;3.33;;
30970;SDS011;17651;52.262;10.498;2022-08-02T04:57:49;7.10;;;3.45;;
30970;SDS011;17651;52.262;10.498;2022-08-02T05:00:06;6.47;;;3.70;;
30970;SDS011;17651;52.262;10.498;2022-08-02T05:02:18;6.13;;;3.50;;
30970;SDS011;17651;52.262;10.498;2022-08-02T05:04:29;5.38;;;3.70;;
30970;SDS011;17651;52.262;10.498;2022-08-02T05:06:40;4.97;;;3.20;;
30970;SDS011;17651;52.262;10.498;2022-08-02T05:08:51;5.28;;;3.70;;
30970;SDS011;17651;52.262;10.498;2022-08-02T05:11:02;6.82;;;3.60;;
30970;SDS011;17651;52.262;10.498;2022-08-02T05:13:13;7.65;;;3.75;;
30970;SDS011;17651;52.262;10.498;2022-08-02T05:15:24;8.13;;;3.40;;
30970;SDS011;17651;52.262;10.498;2022-08-02T05:17:35;6.80;;;3.70;;
30970;SDS011;17651;52.262;10.498;2022-08-02T05:19:46;7.57;;;4.05;;
30970;SDS011;17651;52.262;10.498;2022-08-02T05:21:58;7.47;;;3.83;;
30970;SDS011;17651;52.262;10.498;2022-08-02T05:24:09;12.05;;;3.97;;
30970;SDS011;17651;52.262;10.498;2022-08-02T05:26:20;6.13;;;3.67;;
30970;SDS011;17651;52.262;10.498;2022-08-02T05:28:31;6.80;;;3.53;;
30970;SDS011;17651;52.262;10.498;2022-08-02T05:30:42;7.47;;;3.88;;
30970;SDS011;17651;52.262;10.498;2022-08-02T05:32:53;9.63;;;4.05;;
30970;SDS011;17651;52.262;10.498;2022-08-02T05:35:05;4.88;;;3.47;;
30970;SDS011;17651;52.262;10.498;2022-08-02T05:37:16;8.52;;;3.75;;
30970;SDS011;17651;52.262;10.498;2022-08-02T05:39:27;7.00;;;4.03;;
30970;SDS011;17651;52.262;10.498;2022-08-02T05:41:39;5.30;;;3.60;;
30970;SDS011;17651;52.262;10.498;2022-08-02T05:43:50;6.18;;;3.38;;
30970;SDS011;17651;52.262;10.498;2022-08-02T05:46:01;7.18;;;3.78;;
30970;SDS011;17651;52.262;10.498;2022-08-02T05:48:12;8.80;;;4.45;;
30970;SDS011;17651;52.262;10.498;2022-08-02T05:50:23;4.18;;;3.10;;
30970;SDS011;17651;52.262;10.498;2022-08-02T05:54:47;7.43;;;3.50;;
30970;SDS011;17651;52.262;10.498;2022-08-02T05:59:53;5.93;;;3.38;;
30970;SDS011;17651;52.262;10.498;2022-08-02T06:04:53;7.47;;;3.10;;
30970;SDS011;17651;52.262;10.498;2022-08-02T06:07:07;6.25;;;2.80;;
30970;SDS011;17651;52.262;10.498;2022-08-02T06:09:19;9.30;;;3.50;;
30970;SDS011;17651;52.262;10.498;2022-08-02T06:11:52;5.05;;;2.72;;
30970;SDS011;17651;52.262;10.498;2022-08-02T06:14:03;7.75;;;3.33;;
30970;SDS011;17651;52.262;10.498;2022-08-02T06:16:14;6.15;;;3.40;;
30970;SDS011;17651;52.262;10.498;2022-08-02T06:18:26;5.07;;;2.95;;
30970;SDS011;17651;52.262;10.498;2022-08-02T06:20:38;7.03;;;3.15;;
30970;SDS011;17651;52.262;10.498;2022-08-02T06:22:50;7.97;;;3.15;;
30970;SDS011;17651;52.262;10.498;2022-08-02T06:25:03;4.88;;;2.80;;
30970;SDS011;17651;52.262;10.498;2022-08-02T06:27:14;7.15;;;3.20;;
30970;SDS011;17651;52.262;10.498;2022-08-02T06:29:25;6.03;;;3.17;;
30970;SDS011;17651;52.262;10.498;2022-08-02T06:31:37;7.88;;;2.90;;
30970;SDS011;17651;52.262;10.498;2022-08-02T06:33:48;5.57;;;2.85;;
30970;SDS011;17651;52.262;10.498;2022-08-02T06:38:17;6.40;;;3.10;;
30970;SDS011;17651;52.262;10.498;2022-08-02T06:40:33;5.68;;;3.08;;
30970;SDS011;17651;52.262;10.498;2022-08-02T06:44:56;5.65;;;2.95;;
30970;SDS011;17651;52.262;10.498;2022-08-02T06:47:08;9.60;;;3.33;;
30970;SDS011;17651;52.262;10.498;2022-08-02T06:49:19;8.70;;;2.92;;
30970;SDS011;17651;52.262;10.498;2022-08-02T06:51:30;7.78;;;3.38;;
30970;SDS011;17651;52.262;10.498;2022-08-02T06:53:41;8.80;;;3.10;;
30970;SDS011;17651;52.262;10.498;2022-08-02T06:55:52;8.35;;;2.58;;
30970;SDS011;17651;52.262;10.498;2022-08-02T06:58:03;9.40;;;3.05;;
30970;SDS011;17651;52.262;10.498;2022-08-02T07:00:15;6.88;;;2.88;;
30970;SDS011;17651;52.262;10.498;2022-08-02T07:02:26;8.82;;;3.10;;
30970;SDS011;17651;52.262;10.498;2022-08-02T07:04:37;7.28;;;2.60;;
30970;SDS011;17651;52.262;10.498;2022-08-02T07:06:49;6.30;;;2.53;;
30970;SDS011;17651;52.262;10.498;2022-08-02T07:09:00;6.05;;;2.58;;
30970;SDS011;17651;52.262;10.498;2022-08-02T07:11:11;6.85;;;3.42;;
30970;SDS011;17651;52.262;10.498;2022-08-02T07:13:22;3.50;;;2.88;;
30970;SDS011;17651;52.262;10.498;2022-08-02T07:15:33;7.55;;;2.83;;
30970;SDS011;17651;52.262;10.498;2022-08-02T07:17:44;9.65;;;2.80;;
30970;SDS011;17651;52.262;10.498;2022-08-02T07:19:56;9.07;;;3.38;;
30970;SDS011;17651;52.262;10.498;2022-08-02T07:22:07;5.95;;;2.95;;
30970;SDS011;17651;52.262;10.498;2022-08-02T07:24:18;8.50;;;2.90;;
30970;SDS011;17651;52.262;10.498;2022-08-02T07:26:29;8.73;;;2.80;;
30970;SDS011;17651;52.262;10.498;2022-08-02T07:28:40;7.68;;;3.67;;
30970;SDS011;17651;52.262;10.498;2022-08-02T07:30:51;5.25;;;2.53;;
30970;SDS011;17651;52.262;10.498;2022-08-02T07:33:03;9.00;;;3.42;;
30970;SDS011;17651;52.262;10.498;2022-08-02T07:35:14;4.47;;;2.60;;
30970;SDS011;17651;52.262;10.498;2022-08-02T07:37:26;6.30;;;2.72;;
30970;SDS011;17651;52.262;10.498;2022-08-02T07:39:38;8.82;;;2.72;;
30970;SDS011;17651;52.262;10.498;2022-08-02T07:41:49;7.93;;;3.35;;
30970;SDS011;17651;52.262;10.498;2022-08-02T07:44:01;7.90;;;3.40;;
30970;SDS011;17651;52.262;10.498;2022-08-02T07:46:12;5.13;;;3.10;;
30970;SDS011;17651;52.262;10.498;2022-08-02T07:48:23;9.88;;;3.35;;
30970;SDS011;17651;52.262;10.498;2022-08-02T07:50:35;5.57;;;2.78;;
30970;SDS011;17651;52.262;10.498;2022-08-02T07:52:46;5.40;;;3.20;;
30970;SDS011;17651;52.262;10.498;2022-08-02T07:54:57;7.70;;;3.38;;
30970;SDS011;17651;52.262;10.498;2022-08-02T07:57:08;6.65;;;3.67;;
30970;SDS011;17651;52.262;10.498;2022-08-02T07:59:19;6.05;;;2.72;;
30970;SDS011;17651;52.262;10.498;2022-08-02T08:01:31;8.70;;;3.35;;
30970;SDS011;17651;52.262;10.498;2022-08-02T08:03:42;5.00;;;3.28;;
30970;SDS011;17651;52.262;10.498;2022-08-02T08:05:54;4.82;;;3.22;;
30970;SDS011;17651;52.262;10.498;2022-08-02T08:08:05;6.50;;;3.25;;
30970;SDS011;17651;52.262;10.498;2022-08-02T08:10:16;12.27;;;4.28;;
30970;SDS011;17651;52.262;10.498;2022-08-02T08:12:27;9.98;;;5.30;;
30970;SDS011;17651;52.262;10.498;2022-08-02T08:14:39;9.32;;;4.05;;
30970;SDS011;17651;52.262;10.498;2022-08-02T08:16:50;10.27;;;4.10;;
30970;SDS011;17651;52.262;10.498;2022-08-02T08:19:01;9.23;;;4.47;;
30970;SDS011;17651;52.262;10.498;2022-08-02T08:21:12;11.98;;;4.18;;
30970;SDS011;17651;52.262;10.498;2022-08-02T08:23:23;10.30;;;4.78;;
30970;SDS011;17651;52.262;10.498;2022-08-02T08:25:34;8.25;;;4.47;;
30970;SDS011;17651;52.262;10.498;2022-08-02T08:27:46;5.10;;;4.05;;
30970;SDS011;17651;52.262;10.498;2022-08-02T08:29:58;9.80;;;6.20;;
30970;SDS011;17651;52.262;10.498;2022-08-02T08:32:09;17.75;;;6.28;;
30970;SDS011;17651;52.262;10.498;2022-08-02T08:34:20;8.07;;;4.30;;
30970;SDS011;17651;52.262;10.498;2022-08-02T08:36:33;7.47;;;5.53;;
30970;SDS011;17651;52.262;10.498;2022-08-02T08:38:44;13.70;;;4.60;;
30970;SDS011;17651;52.262;10.498;2022-08-02T08:40:55;8.30;;;4.13;;
30970;SDS011;17651;52.262;10.498;2022-08-02T08:43:06;12.18;;;5.00;;
30970;SDS011;17651;52.262;10.498;2022-08-02T08:45:17;8.25;;;4.00;;
30970;SDS011;17651;52.262;10.498;2022-08-02T08:47:38;7.90;;;4.50;;
30970;SDS011;17651;52.262;10.498;2022-08-02T08:49:50;11.77;;;5.15;;
30970;SDS011;17651;52.262;10.498;2022-08-02T08:52:03;11.65;;;4.00;;
30970;SDS011;17651;52.262;10.498;2022-08-02T08:54:15;11.40;;;4.40;;
30970;SDS011;17651;52.262;10.498;2022-08-02T08:56:32;6.80;;;4.70;;
30970;SDS011;17651;52.262;10.498;2022-08-02T08:58:43;9.15;;;4.07;;
30970;SDS011;17651;52.262;10.498;2022-08-02T09:00:56;7.00;;;3.50;;
30970;SDS011;17651;52.262;10.498;2022-08-02T09:03:07;9.60;;;4.03;;
30970;SDS011;17651;52.262;10.498;2022-08-02T09:05:19;4.47;;;3.65;;
30970;SDS011;17651;52.262;10.498;2022-08-02T09:07:30;6.03;;;3.75;;
30970;SDS011;17651;52.262;10.498;2022-08-02T09:09:41;4.53;;;3.65;;
30970;SDS011;17651;52.262;10.498;2022-08-02T09:11:52;10.50;;;3.90;;
30970;SDS011;17651;52.262;10.498;2022-08-02T09:14:03;4.82;;;3.22;;
30970;SDS011;17651;52.262;10.498;2022-08-02T09:16:14;8.02;;;4.03;;
30970;SDS011;17651;52.262;10.498;2022-08-02T09:20:50;6.38;;;3.55;;
30970;SDS011;17651;52.262;10.498;2022-08-02T09:23:08;9.13;;;3.53;;
30970;SDS011;17651;52.262;10.498;2022-08-02T09:25:19;4.97;;;3.60;;
30970;SDS011;17651;52.262;10.498;2022-08-02T09:27:34;5.95;;;3.78;;
30970;SDS011;17651;52.262;10.498;2022-08-02T09:29:46;7.15;;;3.50;;
30970;SDS011;17651;52.262;10.498;2022-08-02T09:32:01;3.72;;;3.15;;
30970;SDS011;17651;52.262;10.498;2022-08-02T09:34:12;4.93;;;3.60;;
30970;SDS011;17651;52.262;10.498;2022-08-02T09:36:23;7.93;;;4.10;;
30970;SDS011;17651;52.262;10.498;2022-08-02T09:38:35;6.05;;;3.42;;
30970;SDS011;17651;52.262;10.498;2022-08-02T09:40:46;6.40;;;4.13;;
30970;SDS011;17651;52.262;10.498;2022-08-02T09:42:57;10.32;;;3.85;;
30970;SDS011;17651;52.262;10.498;2022-08-02T09:45:09;5.07;;;3.10;;
30970;SDS011;17651;52.262;10.498;2022-08-02T09:47:20;6.10;;;3.30;;
30970;SDS011;17651;52.262;10.498;2022-08-02T09:49:32;6.30;;;3.17;;
30970;SDS011;17651;52.262;10.498;2022-08-02T09:53:58;6.07;;;3.35;;
30970;SDS011;17651;52.262;10.498;2022-08-02T09:56:09;7.85;;;3.63;;
30970;SDS011;17651;52.262;10.498;2022-08-02T09:58:20;3.90;;;3.40;;
30970;SDS011;17651;52.262;10.498;2022-08-02T10:00:31;7.70;;;3.78;;
30970;SDS011;17651;52.262;10.498;2022-08-02T10:03:04;7.95;;;3.20;;
30970;SDS011;17651;52.262;10.498;2022-08-02T10:05:14;3.67;;;3.03;;
30970;SDS011;17651;52.262;10.498;2022-08-02T10:07:25;4.00;;;2.60;;
30970;SDS011;17651;52.262;10.498;2022-08-02T10:09:36;5.35;;;3.38;;
30970;SDS011;17651;52.262;10.498;2022-08-02T10:11:48;7.90;;;3.50;;
30970;SDS011;17651;52.262;10.498;2022-08-02T10:13:59;5.18;;;3.38;;
30970;SDS011;17651;52.262;10.498;2022-08-02T10:16:11;3.13;;;2.75;;
30970;SDS011;17651;52.262;10.498;2022-08-02T10:18:23;5.60;;;3.10;;
30970;SDS011;17651;52.262;10.498;2022-08-02T10:20:42;3.60;;;2.90;;
30970;SDS011;17651;52.262;10.498;2022-08-02T10:22:53;7.18;;;3.40;;
30970;SDS011;17651;52.262;10.498;2022-08-02T10:25:06;4.15;;;2.85;;
30970;SDS011;17651;52.262;10.498;2022-08-02T10:27:19;4.75;;;3.55;;
30970;SDS011;17651;52.262;10.498;2022-08-02T10:29:34;5.63;;;3.15;;
30970;SDS011;17651;52.262;10.498;2022-08-02T10:32:20;4.72;;;3.47;;
30970;SDS011;17651;52.262;10.498;2022-08-02T10:34:26;7.10;;;3.60;;
30970;SDS011;17651;52.262;10.498;2022-08-02T10:36:39;5.32;;;3.38;;
30970;SDS011;17651;52.262;10.498;2022-08-02T10:38:50;4.72;;;3.03;;
30970;SDS011;17651;52.262;10.498;2022-08-02T10:41:02;3.40;;;2.88;;
30970;SDS011;17651;52.262;10.498;2022-08-02T10:43:47;3.30;;;3.00;;
30970;SDS011;17651;52.262;10.498;2022-08-02T10:45:51;5.45;;;3.38;;
30970;SDS011;17651;52.262;10.498;2022-08-02T10:48:03;7.18;;;3.47;;
30970;SDS011;17651;52.262;10.498;2022-08-02T10:50:17;4.07;;;3.28;;
30970;SDS011;17651;52.262;10.498;2022-08-02T10:52:28;4.18;;;3.13;;
30970;SDS011;17651;52.262;10.498;2022-08-02T10:54:41;4.60;;;2.72;;
30970;SDS011;17651;52.262;10.498;2022-08-02T10:56:53;3.40;;;3.10;;
30970;SDS011;17651;52.262;10.498;2022-08-02T10:59:51;4.10;;;3.70;;
30970;SDS011;17651;52.262;10.498;2022-08-02T11:01:37;4.07;;;3.67;;
30970;SDS011;17651;52.262;10.498;2022-08-02T11:03:56;4.20;;;3.30;;
30970;SDS011;17651;52.262;10.498;2022-08-02T11:06:08;7.00;;;3.95;;
30970;SDS011;17651;52.262;10.498;2022-08-02T11:08:20;3.63;;;3.20;;
30970;SDS011;17651;52.262;10.498;2022-08-02T11:10:33;3.90;;;3.38;;
30970;SDS011;17651;52.262;10.498;2022-08-02T11:12:57;3.75;;;3.45;;
30970;SDS011;17651;52.262;10.498;2022-08-02T11:15:08;4.40;;;4.00;;
30970;SDS011;17651;52.262;10.498;2022-08-02T11:17:19;5.45;;;4.15;;
30970;SDS011;17651;52.262;10.498;2022-08-02T11:19:31;4.15;;;3.47;;
30970;SDS011;17651;52.262;10.498;2022-08-02T11:21:43;5.82;;;2.95;;
30970;SDS011;17651;52.262;10.498;2022-08-02T11:24:23;3.38;;;3.08;;
30970;SDS011;17651;52.262;10.498;2022-08-02T11:28:49;3.53;;;2.97;;
30970;SDS011;17651;52.262;10.498;2022-08-02T11:31:00;4.63;;;3.13;;
30970;SDS011;17651;52.262;10.498;2022-08-02T11:33:11;4.18;;;3.17;;
30970;SDS011;17651;52.262;10.498;2022-08-02T11:35:22;3.88;;;3.17;;
30970;SDS011;17651;52.262;10.498;2022-08-02T11:37:42;2.80;;;2.47;;
30970;SDS011;17651;52.262;10.498;2022-08-02T11:39:53;3.65;;;2.70;;
30970;SDS011;17651;52.262;10.498;2022-08-02T11:42:04;5.20;;;3.03;;
30970;SDS011;17651;52.262;10.498;2022-08-02T11:44:17;4.53;;;2.60;;
30970;SDS011;17651;52.262;10.498;2022-08-02T11:46:28;3.67;;;2.45;;
30970;SDS011;17651;52.262;10.498;2022-08-02T11:48:40;6.18;;;3.67;;
30970;SDS011;17651;52.262;10.498;2022-08-02T11:53:33;3.60;;;2.60;;
30970;SDS011;17651;52.262;10.498;2022-08-02T11:55:44;4.20;;;2.53;;
30970;SDS011;17651;52.262;10.498;2022-08-02T11:57:59;3.83;;;2.70;;
30970;SDS011;17651;52.262;10.498;2022-08-02T12:00:14;2.97;;;2.72;;
30970;SDS011;17651;52.262;10.498;2022-08-02T12:02:29;4.15;;;2.58;;
30970;SDS011;17651;52.262;10.498;2022-08-02T12:04:41;3.15;;;2.40;;
30970;SDS011;17651;52.262;10.498;2022-08-02T12:06:53;2.30;;;2.00;;
30970;SDS011;17651;52.262;10.498;2022-08-02T12:09:05;2.85;;;2.65;;
30970;SDS011;17651;52.262;10.498;2022-08-02T12:11:19;4.05;;;2.20;;
30970;SDS011;17651;52.262;10.498;2022-08-02T12:13:51;2.83;;;2.38;;
30970;SDS011;17651;52.262;10.498;2022-08-02T12:16:08;2.80;;;2.35;;
30970;SDS011;17651;52.262;10.498;2022-08-02T12:18:39;7.50;;;2.58;;
30970;SDS011;17651;52.262;10.498;2022-08-02T12:21:23;2.70;;;2.40;;
30970;SDS011;17651;52.262;10.498;2022-08-02T12:23:41;3.42;;;2.50;;
30970;SDS011;17651;52.262;10.498;2022-08-02T12:26:02;2.28;;;2.15;;
30970;SDS011;17651;52.262;10.498;2022-08-02T12:28:18;3.55;;;2.30;;
30970;SDS011;17651;52.262;10.498;2022-08-02T12:30:31;3.53;;;2.15;;
30970;SDS011;17651;52.262;10.498;2022-08-02T12:33:07;3.58;;;2.10;;
30970;SDS011;17651;52.262;10.498;2022-08-02T12:35:18;3.85;;;2.30;;
30970;SDS011;17651;52.262;10.498;2022-08-02T12:37:30;3.45;;;2.05;;
30970;SDS011;17651;52.262;10.498;2022-08-02T12:39:42;2.10;;;1.92;;
30970;SDS011;17651;52.262;10.498;2022-08-02T12:41:56;2.55;;;2.15;;
30970;SDS011;17651;52.262;10.498;2022-08-02T12:44:14;4.10;;;2.25;;
30970;SDS011;17651;52.262;10.498;2022-08-02T12:46:25;3.15;;;2.17;;
30970;SDS011;17651;52.262;10.498;2022-08-02T12:48:37;2.70;;;1.95;;
30970;SDS011;17651;52.262;10.498;2022-08-02T12:50:50;2.13;;;1.90;;
30970;SDS011;17651;52.262;10.498;2022-08-02T12:53:08;2.38;;;1.95;;
30970;SDS011;17651;52.262;10.498;2022-08-02T12:55:21;3.50;;;2.08;;
30970;SDS011;17651;52.262;10.498;2022-08-02T12:57:32;3.83;;;1.75;;
30970;SDS011;17651;52.262;10.498;2022-08-02T13:00:00;3.30;;;1.92;;
30970;SDS011;17651;52.262;10.498;2022-08-02T13:02:11;2.20;;;1.90;;
30970;SDS011;17651;52.262;10.498;2022-08-02T13:04:23;2.42;;;2.03;;
30970;SDS011;17651;52.262;10.498;2022-08-02T13:06:35;2.58;;;1.98;;
30970;SDS011;17651;52.262;10.498;2022-08-02T13:08:46;1.83;;;1.60;;
30970;SDS011;17651;52.262;10.498;2022-08-02T13:10:57;4.28;;;2.05;;
30970;SDS011;17651;52.262;10.498;2022-08-02T13:13:08;4.40;;;2.08;;
30970;SDS011;17651;52.262;10.498;2022-08-02T13:15:20;3.15;;;1.90;;
30970;SDS011;17651;52.262;10.498;2022-08-02T13:17:31;2.30;;;1.92;;
30970;SDS011;17651;52.262;10.498;2022-08-02T13:19:43;2.75;;;1.92;;
30970;SDS011;17651;52.262;10.498;2022-08-02T13:21:54;4.30;;;2.10;;
30970;SDS011;17651;52.262;10.498;2022-08-02T13:24:05;3.00;;;1.60;;
30970;SDS011;17651;52.262;10.498;2022-08-02T13:26:17;1.60;;;1.45;;
30970;SDS011;17651;52.262;10.498;2022-08-02T13:28:28;1.90;;;1.50;;
30970;SDS011;17651;52.262;10.498;2022-08-02T13:30:39;4.13;;;1.63;;
30970;SDS011;17651;52.262;10.498;2022-08-02T13:32:50;1.67;;;1.58;;
30970;SDS011;17651;52.262;10.498;2022-08-02T13:35:01;1.90;;;1.40;;
30970;SDS011;17651;52.262;10.498;2022-08-02T13:37:13;1.50;;;1.40;;
30970;SDS011;17651;52.262;10.498;2022-08-02T13:39:24;2.10;;;1.45;;
30970;SDS011;17651;52.262;10.498;2022-08-02T13:41:35;2.90;;;1.60;;